sensor_id;sensor_type;location;lat;lon;timestamp;temperature;humidity
48579;DHT22;34357;51.948;6.132;2024-03-02T00:00:08;8.40;73.40
48579;DHT22;34357;51.948;6.132;2024-03-02T00:02:47;8.30;73.60
48579;DHT22;34357;51.948;6.132;2024-03-02T00:05:15;8.30;73.80
48579;DHT22;34357;51.948;6.132;2024-03-02T00:07:53;8.30;73.40
48579;DHT22;34357;51.948;6.132;2024-03-02T00:10:23;8.30;73.70
48579;DHT22;34357;51.948;6.132;2024-03-02T00:12:54;8.30;73.70
48579;DHT22;34357;51.948;6.132;2024-03-02T00:17:55;8.40;73.30
48579;DHT22;34357;51.948;6.132;2024-03-02T00:20:25;8.40;73.50
48579;DHT22;34357;51.948;6.132;2024-03-02T00:23:04;8.40;73.70
48579;DHT22;34357;51.948;6.132;2024-03-02T00:28:23;8.30;73.60
48579;DHT22;34357;51.948;6.132;2024-03-02T00:30:56;8.30;73.60
48579;DHT22;34357;51.948;6.132;2024-03-02T00:33:37;8.20;74.00
48579;DHT22;34357;51.948;6.132;2024-03-02T00:36:06;8.20;74.00
48579;DHT22;34357;51.948;6.132;2024-03-02T00:38:33;8.20;74.20
48579;DHT22;34357;51.948;6.132;2024-03-02T00:41:04;8.20;74.20
48579;DHT22;34357;51.948;6.132;2024-03-02T00:46:11;8.30;73.80
48579;DHT22;34357;51.948;6.132;2024-03-02T00:48:37;8.40;73.70
48579;DHT22;34357;51.948;6.132;2024-03-02T00:51:04;8.30;73.80
48579;DHT22;34357;51.948;6.132;2024-03-02T00:53:30;8.30;73.90
48579;DHT22;34357;51.948;6.132;2024-03-02T00:55:56;8.40;73.50
48579;DHT22;34357;51.948;6.132;2024-03-02T00:58:22;8.40;73.60
48579;DHT22;34357;51.948;6.132;2024-03-02T01:00:48;8.40;74.00
48579;DHT22;34357;51.948;6.132;2024-03-02T01:03:13;8.40;73.70
48579;DHT22;34357;51.948;6.132;2024-03-02T01:05:42;8.40;73.70
48579;DHT22;34357;51.948;6.132;2024-03-02T01:08:09;8.40;73.60
48579;DHT22;34357;51.948;6.132;2024-03-02T01:10:35;8.40;73.60
48579;DHT22;34357;51.948;6.132;2024-03-02T01:13:01;8.40;73.70
48579;DHT22;34357;51.948;6.132;2024-03-02T01:15:26;8.50;73.60
48579;DHT22;34357;51.948;6.132;2024-03-02T01:17:52;8.50;73.80
48579;DHT22;34357;51.948;6.132;2024-03-02T01:20:18;8.50;73.70
48579;DHT22;34357;51.948;6.132;2024-03-02T01:22:44;8.50;73.30
48579;DHT22;34357;51.948;6.132;2024-03-02T01:25:09;8.50;73.60
48579;DHT22;34357;51.948;6.132;2024-03-02T01:27:35;8.60;73.40
48579;DHT22;34357;51.948;6.132;2024-03-02T01:30:01;8.60;73.10
48579;DHT22;34357;51.948;6.132;2024-03-02T01:32:27;8.60;73.30
48579;DHT22;34357;51.948;6.132;2024-03-02T01:34:53;8.50;73.40
48579;DHT22;34357;51.948;6.132;2024-03-02T01:37:18;8.50;73.40
48579;DHT22;34357;51.948;6.132;2024-03-02T01:39:44;8.50;73.30
48579;DHT22;34357;51.948;6.132;2024-03-02T01:42:10;8.60;73.30
48579;DHT22;34357;51.948;6.132;2024-03-02T01:44:36;8.50;73.40
48579;DHT22;34357;51.948;6.132;2024-03-02T01:47:02;8.50;73.70
48579;DHT22;34357;51.948;6.132;2024-03-02T01:49:28;8.50;74.00
48579;DHT22;34357;51.948;6.132;2024-03-02T01:51:53;8.40;74.20
48579;DHT22;34357;51.948;6.132;2024-03-02T01:54:19;8.40;74.60
48579;DHT22;34357;51.948;6.132;2024-03-02T01:56:45;8.60;74.60
48579;DHT22;34357;51.948;6.132;2024-03-02T01:59:11;8.60;74.40
48579;DHT22;34357;51.948;6.132;2024-03-02T02:01:39;8.60;74.60
48579;DHT22;34357;51.948;6.132;2024-03-02T02:04:05;8.60;74.60
48579;DHT22;34357;51.948;6.132;2024-03-02T02:06:32;8.60;74.80
48579;DHT22;34357;51.948;6.132;2024-03-02T02:08:58;8.50;75.10
48579;DHT22;34357;51.948;6.132;2024-03-02T02:11:24;8.50;75.00
48579;DHT22;34357;51.948;6.132;2024-03-02T02:13:50;8.50;75.10
48579;DHT22;34357;51.948;6.132;2024-03-02T02:16:16;8.40;75.40
48579;DHT22;34357;51.948;6.132;2024-03-02T02:18:42;8.40;75.60
48579;DHT22;34357;51.948;6.132;2024-03-02T02:21:07;8.40;75.80
48579;DHT22;34357;51.948;6.132;2024-03-02T02:23:33;8.40;76.10
48579;DHT22;34357;51.948;6.132;2024-03-02T02:25:59;8.40;76.20
48579;DHT22;34357;51.948;6.132;2024-03-02T02:28:25;8.40;76.10
48579;DHT22;34357;51.948;6.132;2024-03-02T02:30:50;8.30;76.40
48579;DHT22;34357;51.948;6.132;2024-03-02T02:33:16;8.30;76.60
48579;DHT22;34357;51.948;6.132;2024-03-02T02:35:42;8.40;76.60
48579;DHT22;34357;51.948;6.132;2024-03-02T02:38:08;8.40;76.40
48579;DHT22;34357;51.948;6.132;2024-03-02T02:40:34;8.40;76.40
48579;DHT22;34357;51.948;6.132;2024-03-02T02:42:59;8.30;76.60
48579;DHT22;34357;51.948;6.132;2024-03-02T02:45:25;8.40;76.00
48579;DHT22;34357;51.948;6.132;2024-03-02T02:47:51;8.40;75.90
48579;DHT22;34357;51.948;6.132;2024-03-02T02:50:16;8.50;75.90
48579;DHT22;34357;51.948;6.132;2024-03-02T02:52:42;8.40;75.90
48579;DHT22;34357;51.948;6.132;2024-03-02T02:55:10;8.40;76.30
48579;DHT22;34357;51.948;6.132;2024-03-02T02:57:37;8.40;76.20
48579;DHT22;34357;51.948;6.132;2024-03-02T03:00:11;8.40;76.10
48579;DHT22;34357;51.948;6.132;2024-03-02T03:02:44;8.40;76.00
48579;DHT22;34357;51.948;6.132;2024-03-02T03:05:11;8.40;76.20
48579;DHT22;34357;51.948;6.132;2024-03-02T03:07:37;8.40;76.40
48579;DHT22;34357;51.948;6.132;2024-03-02T03:10:05;8.40;76.50
48579;DHT22;34357;51.948;6.132;2024-03-02T03:12:32;8.30;76.70
48579;DHT22;34357;51.948;6.132;2024-03-02T03:14:58;8.30;76.80
48579;DHT22;34357;51.948;6.132;2024-03-02T03:17:24;8.30;77.10
48579;DHT22;34357;51.948;6.132;2024-03-02T03:19:50;8.30;76.90
48579;DHT22;34357;51.948;6.132;2024-03-02T03:22:16;8.30;77.10
48579;DHT22;34357;51.948;6.132;2024-03-02T03:24:42;8.20;77.10
48579;DHT22;34357;51.948;6.132;2024-03-02T03:27:07;8.20;76.90
48579;DHT22;34357;51.948;6.132;2024-03-02T03:29:33;8.20;76.90
48579;DHT22;34357;51.948;6.132;2024-03-02T03:31:59;8.10;77.10
48579;DHT22;34357;51.948;6.132;2024-03-02T03:34:24;8.10;77.30
48579;DHT22;34357;51.948;6.132;2024-03-02T03:36:50;8.20;77.10
48579;DHT22;34357;51.948;6.132;2024-03-02T03:39:16;8.10;77.20
48579;DHT22;34357;51.948;6.132;2024-03-02T03:41:42;8.10;77.40
48579;DHT22;34357;51.948;6.132;2024-03-02T03:44:08;8.10;77.50
48579;DHT22;34357;51.948;6.132;2024-03-02T03:46:34;8.00;77.40
48579;DHT22;34357;51.948;6.132;2024-03-02T03:48:59;8.00;77.60
48579;DHT22;34357;51.948;6.132;2024-03-02T03:51:25;8.00;77.20
48579;DHT22;34357;51.948;6.132;2024-03-02T03:53:51;8.00;77.10
48579;DHT22;34357;51.948;6.132;2024-03-02T03:56:16;8.00;77.10
48579;DHT22;34357;51.948;6.132;2024-03-02T03:58:42;8.00;76.90
48579;DHT22;34357;51.948;6.132;2024-03-02T04:01:08;8.00;77.30
48579;DHT22;34357;51.948;6.132;2024-03-02T04:03:34;8.00;77.20
48579;DHT22;34357;51.948;6.132;2024-03-02T04:05:59;7.90;77.20
48579;DHT22;34357;51.948;6.132;2024-03-02T04:08:25;7.90;77.40
48579;DHT22;34357;51.948;6.132;2024-03-02T04:10:51;7.90;77.60
48579;DHT22;34357;51.948;6.132;2024-03-02T04:13:16;7.80;77.80
48579;DHT22;34357;51.948;6.132;2024-03-02T04:15:42;7.80;78.10
48579;DHT22;34357;51.948;6.132;2024-03-02T04:18:08;7.80;77.90
48579;DHT22;34357;51.948;6.132;2024-03-02T04:20:33;7.80;77.80
48579;DHT22;34357;51.948;6.132;2024-03-02T04:22:59;7.80;78.00
48579;DHT22;34357;51.948;6.132;2024-03-02T04:25:25;7.70;78.60
48579;DHT22;34357;51.948;6.132;2024-03-02T04:27:50;7.60;78.80
48579;DHT22;34357;51.948;6.132;2024-03-02T04:30:16;7.60;79.00
48579;DHT22;34357;51.948;6.132;2024-03-02T04:32:42;7.60;79.10
48579;DHT22;34357;51.948;6.132;2024-03-02T04:35:12;7.50;79.30
48579;DHT22;34357;51.948;6.132;2024-03-02T04:37:38;7.50;79.50
48579;DHT22;34357;51.948;6.132;2024-03-02T04:40:05;7.50;79.70
48579;DHT22;34357;51.948;6.132;2024-03-02T04:42:34;7.40;79.70
48579;DHT22;34357;51.948;6.132;2024-03-02T04:45:00;7.40;80.10
48579;DHT22;34357;51.948;6.132;2024-03-02T04:47:26;7.40;80.40
48579;DHT22;34357;51.948;6.132;2024-03-02T04:49:52;7.40;80.20
48579;DHT22;34357;51.948;6.132;2024-03-02T04:52:17;7.40;80.40
48579;DHT22;34357;51.948;6.132;2024-03-02T04:54:43;7.30;80.50
48579;DHT22;34357;51.948;6.132;2024-03-02T04:57:28;7.40;80.60
48579;DHT22;34357;51.948;6.132;2024-03-02T04:59:53;7.30;80.70
48579;DHT22;34357;51.948;6.132;2024-03-02T05:02:19;7.40;80.80
48579;DHT22;34357;51.948;6.132;2024-03-02T05:04:45;7.40;80.40
48579;DHT22;34357;51.948;6.132;2024-03-02T05:07:10;7.50;80.20
48579;DHT22;34357;51.948;6.132;2024-03-02T05:09:36;7.40;80.40
48579;DHT22;34357;51.948;6.132;2024-03-02T05:12:02;7.40;80.50
48579;DHT22;34357;51.948;6.132;2024-03-02T05:14:48;7.40;80.60
48579;DHT22;34357;51.948;6.132;2024-03-02T05:17:14;7.40;80.60
48579;DHT22;34357;51.948;6.132;2024-03-02T05:19:40;7.40;80.80
48579;DHT22;34357;51.948;6.132;2024-03-02T05:22:05;7.30;80.50
48579;DHT22;34357;51.948;6.132;2024-03-02T05:24:31;7.30;80.60
48579;DHT22;34357;51.948;6.132;2024-03-02T05:26:57;7.30;80.40
48579;DHT22;34357;51.948;6.132;2024-03-02T05:29:23;7.20;80.60
48579;DHT22;34357;51.948;6.132;2024-03-02T05:31:49;7.20;80.70
48579;DHT22;34357;51.948;6.132;2024-03-02T05:34:15;7.10;80.90
48579;DHT22;34357;51.948;6.132;2024-03-02T05:36:41;7.10;81.10
48579;DHT22;34357;51.948;6.132;2024-03-02T05:39:06;7.00;81.30
48579;DHT22;34357;51.948;6.132;2024-03-02T05:41:35;6.90;81.40
48579;DHT22;34357;51.948;6.132;2024-03-02T05:44:01;6.90;81.70
48579;DHT22;34357;51.948;6.132;2024-03-02T05:46:27;6.90;81.70
48579;DHT22;34357;51.948;6.132;2024-03-02T05:48:53;6.90;81.70
48579;DHT22;34357;51.948;6.132;2024-03-02T05:51:19;6.90;81.90
48579;DHT22;34357;51.948;6.132;2024-03-02T05:53:44;6.90;81.90
48579;DHT22;34357;51.948;6.132;2024-03-02T05:56:10;6.90;81.90
48579;DHT22;34357;51.948;6.132;2024-03-02T05:58:37;6.90;81.80
48579;DHT22;34357;51.948;6.132;2024-03-02T06:01:15;6.90;81.80
48579;DHT22;34357;51.948;6.132;2024-03-02T06:03:41;6.90;81.70
48579;DHT22;34357;51.948;6.132;2024-03-02T06:06:07;6.90;81.80
48579;DHT22;34357;51.948;6.132;2024-03-02T06:08:32;6.90;81.80
48579;DHT22;34357;51.948;6.132;2024-03-02T06:10:59;6.80;82.00
48579;DHT22;34357;51.948;6.132;2024-03-02T06:13:25;6.80;82.10
48579;DHT22;34357;51.948;6.132;2024-03-02T06:15:52;6.80;82.10
48579;DHT22;34357;51.948;6.132;2024-03-02T06:18:18;6.80;82.20
48579;DHT22;34357;51.948;6.132;2024-03-02T06:20:43;6.80;82.10
48579;DHT22;34357;51.948;6.132;2024-03-02T06:23:09;6.80;82.10
48579;DHT22;34357;51.948;6.132;2024-03-02T06:25:35;6.80;82.10
48579;DHT22;34357;51.948;6.132;2024-03-02T06:28:01;6.80;82.10
48579;DHT22;34357;51.948;6.132;2024-03-02T06:30:27;6.70;82.30
48579;DHT22;34357;51.948;6.132;2024-03-02T06:32:52;6.70;82.30
48579;DHT22;34357;51.948;6.132;2024-03-02T06:35:18;6.70;82.50
48579;DHT22;34357;51.948;6.132;2024-03-02T06:37:44;6.70;82.40
48579;DHT22;34357;51.948;6.132;2024-03-02T06:40:10;6.70;82.50
48579;DHT22;34357;51.948;6.132;2024-03-02T06:42:35;6.70;82.50
48579;DHT22;34357;51.948;6.132;2024-03-02T06:45:02;6.60;82.50
48579;DHT22;34357;51.948;6.132;2024-03-02T06:47:28;6.60;82.60
48579;DHT22;34357;51.948;6.132;2024-03-02T06:49:54;6.60;82.60
48579;DHT22;34357;51.948;6.132;2024-03-02T06:52:20;6.60;82.60
48579;DHT22;34357;51.948;6.132;2024-03-02T06:54:48;6.50;82.70
48579;DHT22;34357;51.948;6.132;2024-03-02T06:57:14;6.50;83.00
48579;DHT22;34357;51.948;6.132;2024-03-02T06:59:40;6.50;82.90
48579;DHT22;34357;51.948;6.132;2024-03-02T07:02:05;6.50;83.00
48579;DHT22;34357;51.948;6.132;2024-03-02T07:04:32;6.60;83.10
48579;DHT22;34357;51.948;6.132;2024-03-02T07:06:57;6.60;83.20
48579;DHT22;34357;51.948;6.132;2024-03-02T07:09:23;6.60;83.30
48579;DHT22;34357;51.948;6.132;2024-03-02T07:11:49;6.60;83.30
48579;DHT22;34357;51.948;6.132;2024-03-02T07:14:15;6.70;83.40
48579;DHT22;34357;51.948;6.132;2024-03-02T07:16:40;6.70;83.20
48579;DHT22;34357;51.948;6.132;2024-03-02T07:19:09;6.90;82.80
48579;DHT22;34357;51.948;6.132;2024-03-02T07:21:35;7.00;82.20
48579;DHT22;34357;51.948;6.132;2024-03-02T07:24:00;7.10;82.00
48579;DHT22;34357;51.948;6.132;2024-03-02T07:26:29;7.20;82.00
48579;DHT22;34357;51.948;6.132;2024-03-02T07:28:57;7.20;81.70
48579;DHT22;34357;51.948;6.132;2024-03-02T07:31:23;7.30;81.50
48579;DHT22;34357;51.948;6.132;2024-03-02T07:33:49;7.50;80.90
48579;DHT22;34357;51.948;6.132;2024-03-02T07:36:14;7.50;80.60
48579;DHT22;34357;51.948;6.132;2024-03-02T07:38:40;7.50;80.50
48579;DHT22;34357;51.948;6.132;2024-03-02T07:41:07;7.50;80.30
48579;DHT22;34357;51.948;6.132;2024-03-02T07:43:34;7.50;80.40
48579;DHT22;34357;51.948;6.132;2024-03-02T07:45:59;7.70;80.10
48579;DHT22;34357;51.948;6.132;2024-03-02T07:48:26;7.70;80.00
48579;DHT22;34357;51.948;6.132;2024-03-02T07:50:52;7.80;79.90
48579;DHT22;34357;51.948;6.132;2024-03-02T07:53:18;8.00;79.50
48579;DHT22;34357;51.948;6.132;2024-03-02T07:55:44;8.10;79.30
48579;DHT22;34357;51.948;6.132;2024-03-02T07:58:09;8.20;79.30
48579;DHT22;34357;51.948;6.132;2024-03-02T08:00:39;8.30;78.90
48579;DHT22;34357;51.948;6.132;2024-03-02T08:03:05;8.40;78.60
48579;DHT22;34357;51.948;6.132;2024-03-02T08:05:31;8.50;77.80
48579;DHT22;34357;51.948;6.132;2024-03-02T08:07:57;8.70;77.60
48579;DHT22;34357;51.948;6.132;2024-03-02T08:10:23;8.80;77.20
48579;DHT22;34357;51.948;6.132;2024-03-02T08:12:49;8.90;77.10
48579;DHT22;34357;51.948;6.132;2024-03-02T08:15:15;9.10;76.30
48579;DHT22;34357;51.948;6.132;2024-03-02T08:17:40;9.20;75.60
48579;DHT22;34357;51.948;6.132;2024-03-02T08:20:15;9.30;75.30
48579;DHT22;34357;51.948;6.132;2024-03-02T08:22:41;9.30;74.60
48579;DHT22;34357;51.948;6.132;2024-03-02T08:25:07;9.50;74.50
48579;DHT22;34357;51.948;6.132;2024-03-02T08:27:33;9.50;73.80
48579;DHT22;34357;51.948;6.132;2024-03-02T08:29:59;9.60;72.90
48579;DHT22;34357;51.948;6.132;2024-03-02T08:32:25;9.90;73.10
48579;DHT22;34357;51.948;6.132;2024-03-02T08:34:51;9.90;73.10
48579;DHT22;34357;51.948;6.132;2024-03-02T08:37:16;10.10;72.20
48579;DHT22;34357;51.948;6.132;2024-03-02T08:39:42;10.40;71.30
48579;DHT22;34357;51.948;6.132;2024-03-02T08:42:08;10.30;70.50
48579;DHT22;34357;51.948;6.132;2024-03-02T08:44:33;10.50;70.50
48579;DHT22;34357;51.948;6.132;2024-03-02T08:46:59;10.60;69.40
48579;DHT22;34357;51.948;6.132;2024-03-02T08:49:25;10.50;69.30
48579;DHT22;34357;51.948;6.132;2024-03-02T08:51:51;10.60;68.70
48579;DHT22;34357;51.948;6.132;2024-03-02T08:54:22;10.60;68.80
48579;DHT22;34357;51.948;6.132;2024-03-02T08:56:52;10.70;68.90
48579;DHT22;34357;51.948;6.132;2024-03-02T08:59:18;10.80;68.70
48579;DHT22;34357;51.948;6.132;2024-03-02T09:01:43;10.80;68.10
48579;DHT22;34357;51.948;6.132;2024-03-02T09:04:10;10.80;67.70
48579;DHT22;34357;51.948;6.132;2024-03-02T09:06:36;10.60;68.00
48579;DHT22;34357;51.948;6.132;2024-03-02T09:09:02;10.80;67.80
48579;DHT22;34357;51.948;6.132;2024-03-02T09:11:28;10.90;66.90
48579;DHT22;34357;51.948;6.132;2024-03-02T09:13:54;10.90;66.80
48579;DHT22;34357;51.948;6.132;2024-03-02T09:16:21;11.10;66.80
48579;DHT22;34357;51.948;6.132;2024-03-02T09:18:47;11.20;65.80
48579;DHT22;34357;51.948;6.132;2024-03-02T09:21:12;11.30;66.10
48579;DHT22;34357;51.948;6.132;2024-03-02T09:23:38;11.60;65.20
48579;DHT22;34357;51.948;6.132;2024-03-02T09:26:06;11.50;63.80
48579;DHT22;34357;51.948;6.132;2024-03-02T09:28:31;11.40;62.90
48579;DHT22;34357;51.948;6.132;2024-03-02T09:30:57;11.10;64.60
48579;DHT22;34357;51.948;6.132;2024-03-02T09:33:23;11.20;64.50
48579;DHT22;34357;51.948;6.132;2024-03-02T09:35:48;11.20;64.70
48579;DHT22;34357;51.948;6.132;2024-03-02T09:38:14;11.40;63.60
48579;DHT22;34357;51.948;6.132;2024-03-02T09:40:41;11.50;63.60
48579;DHT22;34357;51.948;6.132;2024-03-02T09:43:07;11.40;63.80
48579;DHT22;34357;51.948;6.132;2024-03-02T09:45:33;11.50;63.80
48579;DHT22;34357;51.948;6.132;2024-03-02T09:47:59;11.80;63.50
48579;DHT22;34357;51.948;6.132;2024-03-02T09:50:25;11.70;63.40
48579;DHT22;34357;51.948;6.132;2024-03-02T09:52:52;11.70;62.70
48579;DHT22;34357;51.948;6.132;2024-03-02T09:55:18;11.70;62.90
48579;DHT22;34357;51.948;6.132;2024-03-02T09:57:45;11.80;62.60
48579;DHT22;34357;51.948;6.132;2024-03-02T10:00:11;11.80;62.40
48579;DHT22;34357;51.948;6.132;2024-03-02T10:02:41;11.80;62.90
48579;DHT22;34357;51.948;6.132;2024-03-02T10:05:10;11.90;63.20
48579;DHT22;34357;51.948;6.132;2024-03-02T10:07:38;12.00;62.70
48579;DHT22;34357;51.948;6.132;2024-03-02T10:10:14;12.00;62.80
48579;DHT22;34357;51.948;6.132;2024-03-02T10:12:40;12.10;62.60
48579;DHT22;34357;51.948;6.132;2024-03-02T10:15:06;11.70;62.80
48579;DHT22;34357;51.948;6.132;2024-03-02T10:17:33;11.60;62.50
48579;DHT22;34357;51.948;6.132;2024-03-02T10:19:58;11.40;62.30
48579;DHT22;34357;51.948;6.132;2024-03-02T10:22:24;11.30;62.50
48579;DHT22;34357;51.948;6.132;2024-03-02T10:24:51;11.40;63.80
48579;DHT22;34357;51.948;6.132;2024-03-02T10:27:18;11.50;63.30
48579;DHT22;34357;51.948;6.132;2024-03-02T10:29:48;11.50;62.10
48579;DHT22;34357;51.948;6.132;2024-03-02T10:32:15;11.50;63.10
48579;DHT22;34357;51.948;6.132;2024-03-02T10:34:42;11.60;62.40
48579;DHT22;34357;51.948;6.132;2024-03-02T10:37:09;11.70;63.00
48579;DHT22;34357;51.948;6.132;2024-03-02T10:39:35;11.50;62.60
48579;DHT22;34357;51.948;6.132;2024-03-02T10:42:05;11.60;63.20
48579;DHT22;34357;51.948;6.132;2024-03-02T10:44:32;11.70;62.40
48579;DHT22;34357;51.948;6.132;2024-03-02T10:47:02;11.60;61.50
48579;DHT22;34357;51.948;6.132;2024-03-02T10:49:30;11.50;61.80
48579;DHT22;34357;51.948;6.132;2024-03-02T10:51:58;11.50;62.20
48579;DHT22;34357;51.948;6.132;2024-03-02T10:54:23;11.70;62.40
48579;DHT22;34357;51.948;6.132;2024-03-02T10:56:53;11.70;60.70
48579;DHT22;34357;51.948;6.132;2024-03-02T11:01:59;11.50;61.80
48579;DHT22;34357;51.948;6.132;2024-03-02T11:04:29;11.70;61.80
48579;DHT22;34357;51.948;6.132;2024-03-02T11:07:09;11.90;61.80
48579;DHT22;34357;51.948;6.132;2024-03-02T11:09:40;11.90;60.90
48579;DHT22;34357;51.948;6.132;2024-03-02T11:14:32;11.50;62.20
48579;DHT22;34357;51.948;6.132;2024-03-02T11:17:01;11.70;61.90
48579;DHT22;34357;51.948;6.132;2024-03-02T11:19:29;11.70;61.70
48579;DHT22;34357;51.948;6.132;2024-03-02T11:21:56;12.00;61.20
48579;DHT22;34357;51.948;6.132;2024-03-02T11:27:14;12.10;60.50
48579;DHT22;34357;51.948;6.132;2024-03-02T11:30:00;12.10;62.10
48579;DHT22;34357;51.948;6.132;2024-03-02T11:32:26;12.20;60.50
48579;DHT22;34357;51.948;6.132;2024-03-02T11:34:51;12.20;60.60
48579;DHT22;34357;51.948;6.132;2024-03-02T11:37:20;12.40;60.90
48579;DHT22;34357;51.948;6.132;2024-03-02T11:39:48;12.50;58.10
48579;DHT22;34357;51.948;6.132;2024-03-02T11:42:15;12.40;58.70
48579;DHT22;34357;51.948;6.132;2024-03-02T11:44:50;12.20;58.20
48579;DHT22;34357;51.948;6.132;2024-03-02T11:47:16;12.00;58.30
48579;DHT22;34357;51.948;6.132;2024-03-02T11:52:13;12.00;58.80
48579;DHT22;34357;51.948;6.132;2024-03-02T11:54:42;12.20;60.40
48579;DHT22;34357;51.948;6.132;2024-03-02T11:57:15;12.50;60.10
48579;DHT22;34357;51.948;6.132;2024-03-02T11:59:42;12.50;59.30
48579;DHT22;34357;51.948;6.132;2024-03-02T12:02:23;12.60;59.40
48579;DHT22;34357;51.948;6.132;2024-03-02T12:04:49;12.70;57.60
48579;DHT22;34357;51.948;6.132;2024-03-02T12:07:24;12.50;57.20
48579;DHT22;34357;51.948;6.132;2024-03-02T12:09:59;12.40;59.00
48579;DHT22;34357;51.948;6.132;2024-03-02T12:12:28;12.30;60.00
48579;DHT22;34357;51.948;6.132;2024-03-02T12:14:54;12.40;61.70
48579;DHT22;34357;51.948;6.132;2024-03-02T12:17:22;12.40;61.30
48579;DHT22;34357;51.948;6.132;2024-03-02T12:19:48;12.50;61.90
48579;DHT22;34357;51.948;6.132;2024-03-02T12:22:14;12.80;61.80
48579;DHT22;34357;51.948;6.132;2024-03-02T12:24:41;12.80;60.30
48579;DHT22;34357;51.948;6.132;2024-03-02T12:27:07;12.80;61.40
48579;DHT22;34357;51.948;6.132;2024-03-02T12:29:34;12.80;59.30
48579;DHT22;34357;51.948;6.132;2024-03-02T12:32:00;12.90;60.70
48579;DHT22;34357;51.948;6.132;2024-03-02T12:34:28;12.50;59.30
48579;DHT22;34357;51.948;6.132;2024-03-02T12:36:53;12.50;60.00
48579;DHT22;34357;51.948;6.132;2024-03-02T12:39:19;12.70;61.40
48579;DHT22;34357;51.948;6.132;2024-03-02T12:41:51;12.80;60.50
48579;DHT22;34357;51.948;6.132;2024-03-02T12:44:19;12.90;58.20
48579;DHT22;34357;51.948;6.132;2024-03-02T12:46:46;12.70;59.40
48579;DHT22;34357;51.948;6.132;2024-03-02T12:49:14;12.80;60.70
48579;DHT22;34357;51.948;6.132;2024-03-02T12:51:42;12.50;60.90
48579;DHT22;34357;51.948;6.132;2024-03-02T12:54:09;12.40;61.50
48579;DHT22;34357;51.948;6.132;2024-03-02T12:56:38;12.40;61.60
48579;DHT22;34357;51.948;6.132;2024-03-02T12:59:07;12.40;60.00
48579;DHT22;34357;51.948;6.132;2024-03-02T13:01:33;12.50;60.10
48579;DHT22;34357;51.948;6.132;2024-03-02T13:03:59;12.60;60.20
48579;DHT22;34357;51.948;6.132;2024-03-02T13:06:25;12.60;60.50
48579;DHT22;34357;51.948;6.132;2024-03-02T13:08:55;12.70;60.30
48579;DHT22;34357;51.948;6.132;2024-03-02T13:11:23;12.80;58.80
48579;DHT22;34357;51.948;6.132;2024-03-02T13:13:52;12.80;58.30
48579;DHT22;34357;51.948;6.132;2024-03-02T13:16:18;12.90;58.10
48579;DHT22;34357;51.948;6.132;2024-03-02T13:18:45;13.00;57.70
48579;DHT22;34357;51.948;6.132;2024-03-02T13:21:11;13.00;58.00
48579;DHT22;34357;51.948;6.132;2024-03-02T13:23:37;13.00;58.00
48579;DHT22;34357;51.948;6.132;2024-03-02T13:26:02;13.20;58.20
48579;DHT22;34357;51.948;6.132;2024-03-02T13:28:29;13.20;58.10
48579;DHT22;34357;51.948;6.132;2024-03-02T13:30:55;13.10;56.90
48579;DHT22;34357;51.948;6.132;2024-03-02T13:33:21;12.90;57.60
48579;DHT22;34357;51.948;6.132;2024-03-02T13:35:51;12.80;58.50
48579;DHT22;34357;51.948;6.132;2024-03-02T13:38:18;12.80;59.30
48579;DHT22;34357;51.948;6.132;2024-03-02T13:40:44;12.70;57.70
48579;DHT22;34357;51.948;6.132;2024-03-02T13:43:10;12.60;58.80
48579;DHT22;34357;51.948;6.132;2024-03-02T13:45:37;12.70;57.50
48579;DHT22;34357;51.948;6.132;2024-03-02T13:48:03;12.80;58.30
48579;DHT22;34357;51.948;6.132;2024-03-02T13:50:29;12.80;57.00
48579;DHT22;34357;51.948;6.132;2024-03-02T13:52:56;12.80;56.00
48579;DHT22;34357;51.948;6.132;2024-03-02T13:55:22;12.80;56.40
48579;DHT22;34357;51.948;6.132;2024-03-02T13:57:48;12.90;57.00
48579;DHT22;34357;51.948;6.132;2024-03-02T14:00:17;12.80;58.00
48579;DHT22;34357;51.948;6.132;2024-03-02T14:02:45;12.80;57.10
48579;DHT22;34357;51.948;6.132;2024-03-02T14:05:11;12.90;57.10
48579;DHT22;34357;51.948;6.132;2024-03-02T14:07:39;13.20;57.60
48579;DHT22;34357;51.948;6.132;2024-03-02T14:10:05;13.40;56.50
48579;DHT22;34357;51.948;6.132;2024-03-02T14:12:31;13.50;57.50
48579;DHT22;34357;51.948;6.132;2024-03-02T14:14:57;13.70;56.40
48579;DHT22;34357;51.948;6.132;2024-03-02T14:17:28;13.70;56.80
48579;DHT22;34357;51.948;6.132;2024-03-02T14:19:54;13.70;56.00
48579;DHT22;34357;51.948;6.132;2024-03-02T14:22:20;13.90;57.30
48579;DHT22;34357;51.948;6.132;2024-03-02T14:24:46;13.80;57.80
48579;DHT22;34357;51.948;6.132;2024-03-02T14:27:12;13.50;58.70
48579;DHT22;34357;51.948;6.132;2024-03-02T14:29:40;13.40;59.60
48579;DHT22;34357;51.948;6.132;2024-03-02T14:32:06;13.30;58.50
48579;DHT22;34357;51.948;6.132;2024-03-02T14:34:31;13.40;59.00
48579;DHT22;34357;51.948;6.132;2024-03-02T14:36:58;13.40;59.80
48579;DHT22;34357;51.948;6.132;2024-03-02T14:39:25;13.50;60.30
48579;DHT22;34357;51.948;6.132;2024-03-02T14:41:51;13.60;58.70
48579;DHT22;34357;51.948;6.132;2024-03-02T14:44:16;13.60;58.50
48579;DHT22;34357;51.948;6.132;2024-03-02T14:46:43;13.60;58.50
48579;DHT22;34357;51.948;6.132;2024-03-02T14:49:12;13.40;59.70
48579;DHT22;34357;51.948;6.132;2024-03-02T14:51:38;13.40;59.40
48579;DHT22;34357;51.948;6.132;2024-03-02T14:54:04;13.40;60.10
48579;DHT22;34357;51.948;6.132;2024-03-02T14:56:29;13.40;60.00
48579;DHT22;34357;51.948;6.132;2024-03-02T14:58:55;13.40;60.90
48579;DHT22;34357;51.948;6.132;2024-03-02T15:01:21;13.40;61.30
48579;DHT22;34357;51.948;6.132;2024-03-02T15:03:53;13.50;59.30
48579;DHT22;34357;51.948;6.132;2024-03-02T15:06:19;13.50;60.40
48579;DHT22;34357;51.948;6.132;2024-03-02T15:08:45;13.70;60.80
48579;DHT22;34357;51.948;6.132;2024-03-02T15:11:12;13.70;59.90
48579;DHT22;34357;51.948;6.132;2024-03-02T15:13:38;13.60;60.00
48579;DHT22;34357;51.948;6.132;2024-03-02T15:16:05;13.60;60.10
48579;DHT22;34357;51.948;6.132;2024-03-02T15:18:30;13.70;60.50
48579;DHT22;34357;51.948;6.132;2024-03-02T15:20:56;13.60;59.70
48579;DHT22;34357;51.948;6.132;2024-03-02T15:23:22;13.40;60.70
48579;DHT22;34357;51.948;6.132;2024-03-02T15:25:47;13.40;61.50
48579;DHT22;34357;51.948;6.132;2024-03-02T15:28:13;13.40;60.90
48579;DHT22;34357;51.948;6.132;2024-03-02T15:30:39;13.30;61.00
48579;DHT22;34357;51.948;6.132;2024-03-02T15:33:05;13.40;60.80
48579;DHT22;34357;51.948;6.132;2024-03-02T15:35:31;13.40;61.70
48579;DHT22;34357;51.948;6.132;2024-03-02T15:37:57;13.50;60.90
48579;DHT22;34357;51.948;6.132;2024-03-02T15:40:22;13.60;62.10
48579;DHT22;34357;51.948;6.132;2024-03-02T15:42:48;13.60;61.20
48579;DHT22;34357;51.948;6.132;2024-03-02T15:45:14;13.60;62.10
48579;DHT22;34357;51.948;6.132;2024-03-02T15:47:40;13.60;61.50
48579;DHT22;34357;51.948;6.132;2024-03-02T15:50:06;13.50;60.80
48579;DHT22;34357;51.948;6.132;2024-03-02T15:52:32;13.40;61.20
48579;DHT22;34357;51.948;6.132;2024-03-02T15:54:58;13.40;60.80